SGEN/ENO METAR and TAF weather

Enter ICAO airport designator
Station Type Date Time Source
SGEN METAR 2019/08/22 15:00 UTC NOAA

SGEN 221500Z 06003KT 9999 FEW030 SCT060 18/10 Q1022


Station Type Date Time Source
SGEN Decoded METAR 2019/08/22 15:00 UTC NOAA

Station name not available
Aug 22, 2019 - 11:00 AM EDT / 2019.08.22 1500 UTC
Wind: from the ENE (060 degrees) at 3 MPH (3 KT):0
Visibility: greater than 7 mile(s):0
Sky conditions: partly cloudy
Temperature: 64 F (18 C)
Dew Point: 50 F (10 C)
Relative Humidity: 59%
Pressure (altimeter): 30.18 in. Hg (1022 hPa)
ob: SGEN 221500Z 06003KT 9999 FEW030 SCT060 18/10 Q1022
cycle: 15

Station Type Date Time Source
SGEN TAF 2019/08/22 12:00 UTC NOAA

TAF SGEN 221035Z 2212/2312 00000KT CAVOK TX20/2218Z TN08/2309Z
BECMG 2214/2217 VRB03KT 9999 BKN025 PROB40 2218/2220 9000 -RA BKN025
BECMG 2221/2300 18012KT CAVOK
BECMG 2307/2310 15012KT

Example: see airport list